METAR Data
IDs: Format: Raw Decoded Include TAF

Data at: 1348 UTC 26 Feb 2021

LPOV 261200Z VRB01KT CAVOK 17/12 Q1027